createdAt,value
2023-04-03T00:00:11.892Z,10.02
2023-04-03T00:02:38.693Z,9.98
2023-04-03T00:05:06.102Z,9.92
2023-04-03T00:07:33.115Z,9.93
2023-04-03T00:09:59.891Z,9.88
2023-04-03T00:12:52.750Z,9.89
2023-04-03T00:15:19.767Z,9.75
2023-04-03T00:17:47.006Z,9.79
2023-04-03T00:20:13.916Z,9.92
2023-04-03T00:22:41.024Z,9.84
2023-04-03T00:25:09.186Z,9.76
2023-04-03T00:27:38.892Z,9.84
2023-04-03T00:30:07.699Z,9.81
2023-04-03T00:32:34.971Z,9.89
2023-04-03T00:35:02.908Z,9.91
2023-04-03T00:37:29.665Z,9.73
2023-04-03T00:39:56.796Z,9.84
2023-04-03T00:42:23.600Z,9.64
2023-04-03T00:44:50.380Z,9.70
2023-04-03T00:47:19.071Z,9.67
2023-04-03T00:49:46.554Z,9.58
2023-04-03T00:52:16.782Z,9.34
2023-04-03T00:54:44.832Z,9.54
2023-04-03T00:57:12.450Z,9.39
2023-04-03T00:59:45.781Z,9.17
2023-04-03T01:02:12.796Z,9.03
2023-04-03T01:04:44.259Z,9.03
2023-04-03T01:07:18.079Z,9.08
2023-04-03T01:09:46.359Z,9.25
2023-04-03T01:12:23.845Z,9.30
2023-04-03T01:14:54.745Z,9.25
2023-04-03T01:17:31.622Z,9.25
2023-04-03T01:20:01.908Z,9.33
2023-04-03T01:22:32.377Z,9.39
2023-04-03T01:24:59.424Z,9.44
2023-04-03T01:27:27.144Z,9.30
2023-04-03T01:29:54.292Z,9.49
2023-04-03T01:32:21.241Z,9.39
2023-04-03T01:34:48.098Z,9.38
2023-04-03T01:37:14.856Z,9.04
2023-04-03T01:39:41.817Z,9.24
2023-04-03T01:42:09.052Z,9.22
2023-04-03T01:44:39.858Z,9.12
2023-04-03T01:47:08.256Z,9.32
2023-04-03T01:49:35.764Z,9.41
2023-04-03T01:52:02.660Z,9.48
2023-04-03T01:54:30.293Z,9.29
2023-04-03T01:56:57.233Z,9.19
2023-04-03T01:59:24.131Z,9.30
2023-04-03T02:01:51.852Z,9.26
2023-04-03T02:04:18.894Z,9.29
2023-04-03T02:06:46.360Z,9.16
2023-04-03T02:09:13.412Z,9.32
2023-04-03T02:11:40.277Z,9.40
2023-04-03T02:14:07.565Z,9.26
2023-04-03T02:16:34.533Z,8.95
2023-04-03T02:19:01.463Z,9.08
2023-04-03T02:21:30.030Z,9.00
2023-04-03T02:23:57.367Z,9.20
2023-04-03T02:26:24.313Z,9.17
2023-04-03T02:28:51.118Z,9.03
2023-04-03T02:31:18.732Z,9.04
2023-04-03T02:33:47.706Z,8.97
2023-04-03T02:36:15.872Z,9.00
2023-04-03T02:38:46.636Z,8.73
2023-04-03T02:41:14.011Z,8.78
2023-04-03T02:43:41.017Z,8.77
2023-04-03T02:46:08.361Z,8.84
2023-04-03T02:48:36.305Z,8.97
2023-04-03T02:51:03.460Z,8.95
2023-04-03T02:53:30.309Z,8.90
2023-04-03T02:55:57.627Z,8.87
2023-04-03T02:58:24.492Z,8.95
2023-04-03T03:00:53.443Z,8.80
2023-04-03T03:03:20.163Z,8.85
2023-04-03T03:05:46.945Z,8.84
2023-04-03T03:08:13.856Z,8.85
2023-04-03T03:10:40.671Z,8.76
2023-04-03T03:13:07.934Z,8.85
2023-04-03T03:15:34.860Z,8.63
2023-04-03T03:18:03.132Z,8.77
2023-04-03T03:20:30.007Z,8.68
2023-04-03T03:22:56.818Z,8.70
2023-04-03T03:25:23.647Z,8.69
2023-04-03T03:27:50.493Z,8.65
2023-04-03T03:30:17.255Z,8.71
2023-04-03T03:32:44.166Z,8.61
2023-04-03T03:35:10.934Z,8.54
2023-04-03T03:37:37.934Z,8.35
2023-04-03T03:40:05.548Z,8.60
2023-04-03T03:42:32.918Z,8.50
2023-04-03T03:44:59.832Z,8.50
2023-04-03T03:47:27.145Z,8.48
2023-04-03T03:49:54.444Z,8.56
2023-04-03T03:52:21.392Z,8.43
2023-04-03T03:54:49.356Z,8.17
2023-04-03T03:57:17.323Z,8.37
2023-04-03T03:59:45.309Z,8.29
2023-04-03T04:02:12.400Z,8.17
2023-04-03T04:04:39.206Z,8.39
2023-04-03T04:07:06.370Z,8.38
2023-04-03T04:09:34.488Z,8.40
2023-04-03T04:12:01.333Z,8.24
2023-04-03T04:14:29.775Z,8.55
2023-04-03T04:16:57.516Z,8.53
2023-04-03T04:19:26.937Z,8.54
2023-04-03T04:21:54.631Z,8.38
2023-04-03T04:24:21.642Z,8.45
2023-04-03T04:26:50.587Z,8.38
2023-04-03T04:29:18.431Z,8.48
2023-04-03T04:31:49.055Z,8.46
2023-04-03T04:34:17.317Z,8.42
2023-04-03T04:36:44.421Z,8.35
2023-04-03T04:39:11.734Z,8.50
2023-04-03T04:41:38.802Z,8.50
2023-04-03T04:44:06.631Z,8.35
2023-04-03T04:46:33.951Z,8.31
2023-04-03T04:49:00.842Z,8.19
2023-04-03T04:51:35.107Z,7.87
2023-04-03T04:54:09.354Z,8.04
2023-04-03T04:56:37.234Z,8.13
2023-04-03T04:59:04.558Z,8.21
2023-04-03T05:01:31.893Z,7.75
2023-04-03T05:04:13.719Z,7.67
2023-04-03T05:06:40.975Z,7.81
2023-04-03T05:09:12.502Z,8.13
2023-04-03T05:11:44.047Z,8.08
2023-04-03T05:14:13.344Z,8.07
2023-04-03T05:16:40.580Z,8.06
2023-04-03T05:19:07.911Z,8.13
2023-04-03T05:21:35.440Z,8.17
2023-04-03T05:24:10.069Z,8.02
2023-04-03T05:26:40.000Z,8.21
2023-04-03T05:29:08.915Z,8.25
2023-04-03T05:31:36.095Z,8.28
2023-04-03T05:34:03.892Z,8.29
2023-04-03T05:36:33.764Z,8.15
2023-04-03T05:39:05.359Z,8.38
2023-04-03T05:41:35.101Z,8.32
2023-04-03T05:44:01.962Z,8.44
2023-04-03T05:46:28.968Z,8.42
2023-04-03T05:48:57.899Z,8.41
2023-04-03T05:51:34.924Z,8.52
2023-04-03T05:54:18.908Z,8.51
2023-04-03T05:56:46.707Z,8.69
2023-04-03T05:59:14.017Z,9.42
2023-04-03T06:01:42.313Z,11.21
2023-04-03T06:04:10.276Z,13.12
2023-04-03T06:07:08.565Z,14.92
2023-04-03T06:09:35.783Z,15.41
2023-04-03T06:12:03.138Z,15.52
2023-04-03T06:14:30.865Z,16.74
2023-04-03T06:17:01.189Z,18.26
2023-04-03T06:19:28.509Z,19.32
2023-04-03T06:21:59.467Z,20.27
2023-04-03T06:24:30.428Z,20.85
2023-04-03T06:26:57.631Z,20.77
2023-04-03T06:29:24.964Z,20.84
2023-04-03T06:31:52.252Z,21.14
2023-04-03T06:34:19.471Z,21.11
2023-04-03T06:36:46.925Z,20.51
2023-04-03T06:39:21.453Z,19.29
2023-04-03T06:41:48.623Z,19.65
2023-04-03T06:44:17.091Z,20.95
2023-04-03T06:46:44.961Z,21.07
2023-04-03T06:49:11.882Z,22.40
2023-04-03T06:51:38.942Z,23.14
2023-04-03T06:54:07.214Z,23.56
2023-04-03T06:56:34.135Z,21.65
2023-04-03T06:59:02.049Z,22.28
2023-04-03T07:01:29.858Z,20.65
2023-04-03T07:03:57.516Z,20.62
2023-04-03T07:06:24.489Z,21.80
2023-04-03T07:08:51.449Z,21.65
2023-04-03T07:11:18.428Z,21.06
2023-04-03T07:13:45.199Z,20.02
2023-04-03T07:16:13.649Z,20.09
2023-04-03T07:18:40.476Z,20.86
2023-04-03T07:21:07.625Z,21.44
2023-04-03T07:23:34.554Z,21.41
2023-04-03T07:26:01.275Z,20.09
2023-04-03T07:28:28.073Z,19.92
2023-04-03T07:31:01.580Z,19.16
2023-04-03T07:33:28.481Z,21.97
2023-04-03T07:35:55.545Z,20.32
2023-04-03T07:38:22.708Z,19.27
2023-04-03T07:40:50.678Z,19.04
2023-04-03T07:43:18.884Z,19.15
2023-04-03T07:45:46.163Z,20.03
2023-04-03T07:48:14.203Z,18.54
2023-04-03T07:50:44.552Z,16.13
2023-04-03T07:53:11.622Z,16.64
2023-04-03T07:55:43.990Z,15.29
2023-04-03T07:58:17.442Z,16.27
2023-04-03T08:00:46.991Z,16.10
2023-04-03T08:03:17.846Z,15.46
2023-04-03T08:05:52.324Z,14.28
2023-04-03T08:08:22.340Z,14.30
2023-04-03T08:10:51.317Z,13.98
2023-04-03T08:13:18.783Z,14.84
2023-04-03T08:15:46.214Z,14.74
2023-04-03T08:18:13.336Z,13.52
2023-04-03T08:20:44.264Z,13.31
2023-04-03T08:23:12.174Z,12.97
2023-04-03T08:25:40.960Z,13.98
2023-04-03T08:28:08.612Z,14.20
2023-04-03T08:30:35.809Z,14.91
2023-04-03T08:33:03.855Z,13.83
2023-04-03T08:35:31.166Z,13.20
2023-04-03T08:37:58.024Z,13.89
2023-04-03T08:40:34.429Z,13.40
2023-04-03T08:43:28.716Z,12.97
2023-04-03T08:45:57.025Z,13.32
2023-04-03T08:48:23.904Z,13.42
2023-04-03T08:50:54.288Z,13.28
2023-04-03T08:53:29.545Z,12.80
2023-04-03T08:55:57.003Z,13.11
2023-04-03T08:58:26.977Z,13.08
2023-04-03T09:01:39.211Z,13.93
2023-04-03T09:04:16.019Z,12.61
2023-04-03T09:06:51.525Z,12.56
2023-04-03T09:09:33.678Z,12.46
2023-04-03T09:12:27.965Z,13.48
2023-04-03T09:15:37.869Z,13.54
2023-04-03T09:18:29.809Z,13.58
2023-04-03T09:21:15.143Z,13.15
2023-04-03T09:23:51.994Z,13.43
2023-04-03T09:26:23.802Z,12.97
2023-04-03T09:28:51.602Z,13.67
2023-04-03T09:31:28.682Z,13.22
2023-04-03T09:34:03.821Z,13.56
2023-04-03T09:36:56.130Z,13.00
2023-04-03T09:39:26.140Z,13.18
2023-04-03T09:42:12.986Z,12.96
2023-04-03T09:44:45.228Z,13.20
2023-04-03T09:47:34.696Z,13.19
2023-04-03T09:50:18.216Z,13.51
2023-04-03T09:52:47.798Z,13.04
2023-04-03T09:55:28.350Z,12.41
2023-04-03T09:57:56.697Z,12.48
2023-04-03T10:00:29.663Z,12.89
2023-04-03T10:02:58.229Z,12.99
2023-04-03T10:05:41.101Z,12.85
2023-04-03T10:08:14.042Z,12.66
2023-04-03T10:10:42.874Z,12.62
2023-04-03T10:13:21.374Z,12.84
2023-04-03T10:15:56.857Z,12.72
2023-04-03T10:18:51.601Z,12.62
2023-04-03T10:21:44.041Z,12.84
2023-04-03T10:24:22.841Z,12.38
2023-04-03T10:26:59.019Z,12.96
2023-04-03T10:29:51.040Z,13.29
2023-04-03T10:32:29.272Z,12.86
2023-04-03T10:35:32.562Z,12.51
2023-04-03T10:38:09.391Z,12.05
2023-04-03T10:40:48.577Z,12.73
2023-04-03T10:43:34.251Z,11.92
2023-04-03T10:46:24.865Z,11.32
2023-04-03T10:49:16.099Z,11.91
2023-04-03T10:51:58.079Z,12.12
2023-04-03T10:54:40.532Z,11.43
2023-04-03T10:57:13.490Z,11.66
2023-04-03T10:59:51.383Z,11.82
2023-04-03T11:02:25.290Z,11.94
2023-04-03T11:05:00.805Z,11.85
2023-04-03T11:07:32.898Z,12.83
2023-04-03T11:10:36.916Z,12.52
2023-04-03T11:13:13.572Z,12.69
2023-04-03T11:15:41.506Z,12.60
2023-04-03T11:18:14.920Z,12.44
2023-04-03T11:21:03.432Z,12.21
2023-04-03T11:23:45.775Z,12.70
2023-04-03T11:26:49.683Z,12.20
2023-04-03T11:29:56.179Z,12.41
2023-04-03T11:32:56.853Z,12.35
2023-04-03T11:35:24.601Z,11.81
2023-04-03T11:37:55.019Z,12.31
2023-04-03T11:40:32.014Z,12.45
2023-04-03T11:43:28.397Z,12.62
2023-04-03T14:09:12.017Z,12.79
2023-04-03T14:11:39.020Z,12.98
2023-04-03T14:14:32.878Z,12.98
2023-04-03T14:17:02.510Z,12.80
2023-04-03T14:19:36.567Z,12.60
2023-04-03T14:22:17.445Z,13.02
2023-04-03T14:24:45.518Z,12.71
2023-04-03T14:27:25.399Z,12.41
2023-04-03T14:29:54.630Z,12.95
2023-04-03T14:32:23.291Z,12.79
2023-04-03T14:34:51.244Z,12.90
2023-04-03T14:37:24.107Z,13.31
2023-04-03T14:39:52.581Z,13.40
2023-04-03T14:42:24.002Z,13.21
2023-04-03T14:44:51.093Z,12.92
2023-04-03T14:47:30.498Z,12.68
2023-04-03T14:50:01.224Z,12.82
2023-04-03T14:52:34.047Z,12.80
2023-04-03T14:55:02.115Z,13.36
2023-04-03T14:57:30.340Z,13.06
2023-04-03T14:59:57.341Z,12.52
2023-04-03T15:02:38.458Z,12.38
2023-04-03T15:05:08.614Z,12.89
2023-04-03T15:07:48.124Z,12.97
2023-04-03T15:10:18.866Z,12.96
2023-04-03T15:12:46.144Z,12.78
2023-04-03T15:15:16.564Z,13.12
2023-04-03T15:17:56.288Z,13.60
2023-04-03T15:20:28.795Z,13.21
2023-04-03T15:22:57.538Z,13.27
2023-04-03T15:25:24.881Z,12.80
2023-04-03T15:27:51.932Z,12.84
2023-04-03T15:30:20.457Z,12.87
2023-04-03T15:32:47.452Z,12.92
2023-04-03T15:35:14.543Z,13.21
2023-04-03T15:37:42.857Z,13.09
2023-04-03T15:40:10.100Z,13.49
2023-04-03T15:42:36.982Z,12.99
2023-04-03T15:45:04.228Z,13.29
2023-04-03T15:47:31.295Z,12.65
2023-04-03T15:49:58.612Z,13.23
2023-04-03T15:52:27.329Z,13.60
2023-04-03T15:54:54.070Z,13.07
2023-04-03T15:57:21.530Z,12.69
2023-04-03T15:59:48.588Z,13.28
2023-04-03T16:02:18.790Z,12.54
2023-04-03T16:04:45.960Z,13.04
2023-04-03T16:07:12.875Z,12.82
2023-04-03T16:09:45.606Z,13.43
2023-04-03T16:12:14.906Z,13.06
2023-04-03T16:14:41.716Z,13.00
2023-04-03T16:17:08.516Z,13.17
2023-04-03T16:19:36.508Z,12.99
2023-04-03T16:22:03.359Z,12.73
2023-04-03T16:24:30.442Z,13.12
2023-04-03T16:26:57.239Z,13.05
2023-04-03T16:29:24.109Z,13.47
2023-04-03T16:31:51.058Z,12.82
2023-04-03T16:34:17.868Z,12.98
2023-04-03T16:36:44.793Z,12.75
2023-04-03T16:39:11.699Z,13.06
2023-04-03T16:41:39.048Z,12.44
2023-04-03T16:44:08.207Z,12.96
2023-04-03T16:46:35.527Z,13.01
2023-04-03T16:49:02.545Z,13.33
2023-04-03T16:51:29.592Z,12.70
2023-04-03T16:53:56.389Z,12.67
2023-04-03T16:56:23.264Z,12.47
2023-04-03T16:58:50.020Z,12.80
2023-04-03T17:01:18.905Z,11.92
2023-04-03T17:03:46.458Z,12.33
2023-04-03T17:06:17.545Z,12.73
2023-04-03T17:08:46.946Z,12.51
2023-04-03T17:11:30.475Z,12.50
2023-04-03T17:13:57.740Z,12.63
2023-04-03T17:16:25.581Z,12.61
2023-04-03T17:18:53.523Z,12.89
2023-04-03T17:21:23.723Z,12.68
2023-04-03T17:23:58.664Z,12.68
2023-04-03T17:26:26.919Z,12.26
2023-04-03T17:28:54.097Z,11.84
2023-04-03T17:31:21.478Z,12.11
2023-04-03T17:33:48.267Z,12.11
2023-04-03T17:36:16.138Z,12.39
2023-04-03T17:38:42.918Z,12.41
2023-04-03T17:41:10.573Z,12.39
2023-04-03T17:43:37.397Z,12.44
2023-04-03T17:46:06.985Z,11.94
2023-04-03T17:48:35.703Z,11.86
2023-04-03T17:51:11.177Z,12.50
2023-04-03T17:53:38.546Z,12.75
2023-04-03T17:56:14.297Z,11.87
2023-04-03T17:58:42.388Z,11.88
2023-04-03T18:01:14.400Z,11.97
2023-04-03T18:03:41.961Z,11.67
2023-04-03T18:06:11.987Z,11.99
2023-04-03T18:08:41.695Z,11.82
2023-04-03T18:11:08.995Z,11.88
2023-04-03T18:13:39.100Z,11.45
2023-04-03T18:16:09.771Z,11.72
2023-04-03T18:18:36.772Z,11.61
2023-04-03T18:21:04.563Z,11.99
2023-04-03T18:23:32.923Z,11.97
2023-04-03T18:26:01.213Z,11.74
2023-04-03T18:28:29.052Z,12.05
2023-04-03T18:30:55.897Z,11.51
2023-04-03T18:33:22.728Z,11.29
2023-04-03T18:35:50.419Z,11.66
2023-04-03T18:38:17.450Z,11.36
2023-04-03T18:40:44.921Z,11.35
2023-04-03T18:43:12.453Z,11.51
2023-04-03T18:45:39.488Z,11.13
2023-04-03T18:48:06.515Z,11.35
2023-04-03T18:50:33.652Z,11.13
2023-04-03T18:53:00.641Z,11.16
2023-04-03T18:55:27.388Z,11.30
2023-04-03T18:57:55.036Z,10.90
2023-04-03T19:00:22.077Z,11.07
2023-04-03T19:02:49.385Z,11.22
2023-04-03T19:05:17.168Z,11.04
2023-04-03T19:07:44.760Z,11.04
2023-04-03T19:10:17.334Z,10.76
2023-04-03T19:12:45.417Z,10.96
2023-04-03T19:15:16.482Z,11.26
2023-04-03T19:17:43.507Z,11.47
2023-04-03T19:20:11.921Z,10.83
2023-04-03T19:22:39.392Z,11.04
2023-04-03T19:25:07.113Z,11.19
2023-04-03T19:27:34.736Z,10.91
2023-04-03T19:30:01.531Z,10.81
2023-04-03T19:32:28.490Z,10.91
2023-04-03T19:34:58.439Z,10.49
2023-04-03T19:37:26.965Z,10.67
2023-04-03T19:39:53.961Z,10.99
2023-04-03T19:42:21.186Z,10.94
2023-04-03T19:44:48.838Z,10.74
2023-04-03T19:47:17.896Z,11.09
2023-04-03T19:49:44.803Z,10.84
2023-04-03T19:52:11.604Z,11.20
2023-04-03T19:54:38.451Z,11.11
2023-04-03T19:57:05.552Z,11.27
2023-04-03T19:59:32.497Z,10.96
2023-04-03T20:01:59.897Z,11.18
2023-04-03T20:04:26.894Z,10.78
2023-04-03T20:06:54.539Z,10.96
2023-04-03T20:09:22.309Z,10.56
2023-04-03T20:11:49.818Z,10.72
2023-04-03T20:14:18.430Z,10.80
2023-04-03T20:16:47.337Z,10.69
2023-04-03T20:19:14.374Z,10.45
2023-04-03T20:21:41.397Z,9.82
2023-04-03T20:24:10.665Z,10.40
2023-04-03T20:26:43.864Z,10.61
2023-04-03T20:29:10.611Z,9.83
2023-04-03T20:31:38.884Z,10.24
2023-04-03T20:34:06.267Z,10.42
2023-04-03T20:36:34.253Z,10.63
2023-04-03T20:39:01.305Z,10.13
2023-04-03T20:41:28.116Z,10.65
2023-04-03T20:43:54.809Z,10.31
2023-04-03T20:46:25.505Z,10.04
2023-04-03T20:48:53.655Z,10.11
2023-04-03T20:51:21.330Z,10.25
2023-04-03T20:53:48.636Z,9.98
2023-04-03T20:56:16.567Z,9.97
2023-04-03T20:58:43.938Z,10.32
2023-04-03T21:01:20.026Z,10.00
2023-04-03T21:03:48.851Z,10.32
2023-04-03T21:06:53.148Z,10.48
2023-04-03T21:09:57.389Z,10.25
2023-04-03T21:13:01.981Z,10.12
2023-04-03T21:15:51.982Z,9.84
2023-04-03T21:18:37.713Z,9.89
2023-04-03T21:21:05.121Z,10.53
2023-04-03T21:23:32.843Z,10.00
2023-04-03T21:26:00.066Z,9.92
2023-04-03T21:28:27.346Z,10.30
2023-04-03T21:30:57.327Z,9.76
2023-04-03T21:33:24.052Z,9.66
2023-04-03T21:35:57.678Z,9.86
2023-04-03T21:38:26.367Z,9.42
2023-04-03T21:40:56.825Z,9.70
2023-04-03T21:43:24.344Z,9.14
2023-04-03T21:45:55.304Z,9.37
2023-04-03T21:48:23.336Z,8.91
2023-04-03T21:50:53.826Z,9.46
2023-04-03T21:53:22.587Z,9.09
2023-04-03T21:55:54.210Z,8.97
2023-04-03T21:58:22.424Z,9.28
2023-04-03T22:00:49.231Z,8.70
2023-04-03T22:03:20.936Z,9.03
2023-04-03T22:05:48.314Z,9.24
2023-04-03T22:08:18.090Z,8.99
2023-04-03T22:10:45.118Z,9.38
2023-04-03T22:13:11.968Z,9.05
2023-04-03T22:15:47.342Z,8.68
2023-04-03T22:18:14.207Z,8.89
2023-04-03T22:20:43.241Z,9.09
2023-04-03T22:23:10.479Z,9.19
2023-04-03T22:25:37.301Z,9.25
2023-04-03T22:28:04.193Z,8.92
2023-04-03T22:30:30.982Z,9.42
2023-04-03T22:32:57.832Z,9.76
2023-04-03T22:35:25.103Z,9.04
2023-04-03T22:37:52.879Z,9.38
2023-04-03T22:40:19.880Z,9.30
2023-04-03T22:42:48.202Z,9.15
2023-04-03T22:45:15.891Z,9.33
2023-04-03T22:47:43.354Z,9.18
2023-04-03T22:50:11.236Z,8.94
2023-04-03T22:52:37.992Z,8.81
2023-04-03T22:55:16.508Z,8.60
2023-04-03T22:57:49.354Z,8.66
2023-04-03T23:00:16.668Z,8.97
2023-04-03T23:02:44.164Z,8.78
2023-04-03T23:05:10.942Z,9.41
2023-04-03T23:07:37.833Z,9.83
2023-04-03T23:10:05.168Z,9.27
2023-04-03T23:12:38.133Z,8.96
2023-04-03T23:15:05.726Z,9.02
2023-04-03T23:17:36.011Z,9.07
2023-04-03T23:20:03.021Z,9.54
2023-04-03T23:22:29.754Z,9.25
2023-04-03T23:24:56.749Z,9.35
2023-04-03T23:27:24.267Z,9.09
2023-04-03T23:29:51.313Z,9.15
2023-04-03T23:32:18.014Z,9.13
2023-04-03T23:34:44.804Z,8.92
2023-04-03T23:37:12.691Z,9.08
2023-04-03T23:39:39.941Z,9.31
2023-04-03T23:42:09.286Z,9.44
2023-04-03T23:44:36.354Z,9.37
2023-04-03T23:47:03.384Z,9.33
2023-04-03T23:49:30.161Z,8.44
2023-04-03T23:51:57.673Z,8.59
2023-04-03T23:54:24.393Z,9.09
2023-04-03T23:56:51.366Z,8.86
2023-04-03T23:59:18.439Z,9.05
